• Join FlightAware (Why Join?)
  • Login
  • US Flag 
09:28AM EDT


 

Airport Tracker/Info


-or-


 

Live Flight TrackerFlight Track Log ✈ A6-EDC ✈ 05-Jul-2013 ✈ OMDB / DXB - KJFK

Flight Track Log - Related Links

Times and Time Zones

All times are in EDT time to prevent confusion due to time zone crossing. See the A6-EDC flight status page for this flight to view local times or setup timezone preferences in your user account.

Time Position Orientation Groundspeed Altitude Reporting Facility
EDT Latitude Longitude Course Direction KTS MPH feet Rate Location/Type
11:34PM 25.2500 55.3610 75° East  Level FlightAware
11:44PM 25.4258 55.2140 326° Northwest  Level FlightAware Approximate
11:45PM 25.5245 55.1338 322° Northwest  Level FlightAware Approximate
11:46PM 25.6233 55.0534 326° Northwest  Level FlightAware Approximate
11:47PM 25.7246 54.9768 324° Northwest  Level FlightAware Approximate
11:48PM 25.8231 54.8959 324° Northwest  Level FlightAware Approximate
11:49PM 25.9215 54.8148 323° Northwest  Level FlightAware Approximate
11:50PM 26.0200 54.7336 324° Northwest  Level FlightAware Approximate
11:51PM 26.1188 54.6529 324° Northwest  Level FlightAware Approximate
11:52PM 26.2172 54.5714 323° Northwest  Level FlightAware Approximate
11:53PM 26.3148 54.4888 323° Northwest  Level FlightAware Approximate
11:54PM 26.4126 54.4063 324° Northwest  Level FlightAware Approximate
11:54PM 25.2500 55.3600 270° West  Level FlightAware
11:55PM 25.2500 55.3610 90° East  Level FlightAware
11:57PM 25.2500 55.3600 270° West  Level FlightAware
12:00AM 25.4987 55.1559 322° Northwest  Level FlightAware Approximate
12:01AM 25.5962 55.0737 326° Northwest  Level FlightAware Approximate
12:02AM 25.6977 54.9976 326° Northwest  Level FlightAware Approximate
12:03AM 25.7968 54.9175 324° Northwest  Level FlightAware Approximate
12:03AM 25.2500 55.3610 324° Northwest  Level FlightAware
12:03AM 25.2500 55.3600 270° West  Level FlightAware
12:06AM 25.4728 55.1781 322° Northwest  Level FlightAware Approximate
12:06AM 25.2500 55.3610 322° Northwest  Level FlightAware
12:09AM 25.4987 55.1559 322° Northwest  Level FlightAware Approximate
12:10AM 25.5962 55.0737 326° Northwest  Level FlightAware Approximate
12:10AM 25.2500 55.3600 326° Northwest  Level FlightAware
12:12AM 25.4258 55.2140 326° Northwest  Level FlightAware Approximate
12:13AM 25.5245 55.1338 322° Northwest  Level FlightAware Approximate
12:13AM 25.2500 55.3610 322° Northwest  Level FlightAware
12:16AM 25.4906 55.1628 322° Northwest  Level FlightAware Approximate
12:17AM 25.5877 55.0800 326° Northwest  Level FlightAware Approximate
12:18AM 25.6893 55.0039 326° Northwest  Level FlightAware Approximate
12:19AM 25.7886 54.9242 324° Northwest  Level FlightAware Approximate
12:20AM 25.8871 54.8432 323° Northwest  Level FlightAware Approximate
12:21AM 25.9855 54.7620 323° Northwest  Level FlightAware Approximate
12:22AM 26.0842 54.6811 324° Northwest  Level FlightAware Approximate
12:23AM 26.1830 54.6003 324° Northwest  Level FlightAware Approximate
12:24AM 26.2807 54.5177 323° Northwest  Level FlightAware Approximate
12:27AM 25.5051 55.1504 322° Northwest  Level FlightAware Approximate
12:28AM 25.6030 55.0686 326° Northwest  Level FlightAware Approximate
12:29AM 25.7045 54.9925 326° Northwest  Level FlightAware Approximate
12:30AM 25.8034 54.9121 324° Northwest  Level FlightAware Approximate
12:31AM 25.9018 54.8310 323° Northwest  Level FlightAware Approximate
12:32AM 26.0003 54.7498 324° Northwest  Level FlightAware Approximate
12:33AM 26.0991 54.6690 324° Northwest  Level FlightAware Approximate
12:34AM 26.1977 54.5879 323° Northwest  Level FlightAware Approximate
12:35AM 26.2953 54.5053 323° Northwest  Level FlightAware Approximate
12:36AM 26.3929 54.4227 323° Northwest  Level FlightAware Approximate
12:37AM 26.4916 54.3414 324° Northwest  Level FlightAware Approximate
12:38AM 26.5902 54.2602 324° Northwest  Level FlightAware Approximate
12:39AM 26.6891 54.1792 327° Northwest  Level FlightAware Approximate
12:40AM 26.7925 54.1054 327° Northwest  Level FlightAware Approximate
12:41AM 26.8907 54.0233 323° Northwest  Level FlightAware Approximate
12:42AM 26.9886 53.9405 323° Northwest  Level FlightAware Approximate
12:43AM 27.0867 53.8581 323° Northwest  Level FlightAware Approximate
12:44AM 27.1849 53.7757 323° Northwest  Level FlightAware Approximate
12:45AM 27.2831 53.6932 323° Northwest  Level FlightAware Approximate
12:46AM 27.3795 53.6121 323° Northwest  Level FlightAware Approximate
12:47AM 27.4760 53.5312 324° Northwest  Level FlightAware Approximate
12:48AM 27.5728 53.4505 324° Northwest  Level FlightAware Approximate
12:49AM 27.6695 53.3697 324° Northwest  Level FlightAware Approximate
12:50AM 27.7662 53.2887 323° Northwest  Level FlightAware Approximate
12:51AM 27.8628 53.2076 323° Northwest  Level FlightAware Approximate
12:52AM 27.9594 53.1264 323° Northwest  Level FlightAware Approximate
12:53AM 28.0559 53.0449 323° Northwest  Level FlightAware Approximate
12:54AM 28.1518 52.9625 323° Northwest  Level FlightAware Approximate
12:55AM 28.2477 52.8800 323° Northwest  Level FlightAware Approximate
12:56AM 28.3435 52.7973 323° Northwest  Level FlightAware Approximate
12:57AM 28.4392 52.7144 323° Northwest  Level FlightAware Approximate
12:58AM 28.5349 52.6314 323° Northwest  Level FlightAware Approximate
12:59AM 28.6312 52.5478 323° Northwest  Level FlightAware Approximate
01:00AM 28.7274 52.4639 323° Northwest  Level FlightAware Approximate
01:01AM 28.8235 52.3800 323° Northwest  Level FlightAware Approximate
01:02AM 28.9196 52.2958 323° Northwest  Level FlightAware Approximate
01:03AM 29.0156 52.2116 323° Northwest  Level FlightAware Approximate
01:04AM 29.1117 52.1274 323° Northwest  Level FlightAware Approximate
01:05AM 29.2080 52.0432 323° Northwest  Level FlightAware Approximate
01:06AM 29.3041 51.9590 323° Northwest  Level FlightAware Approximate
01:06AM 25.2590 55.3530 24° Northeast  Level FlightAware
01:07AM 25.2600 55.3540 42° Northeast  Level FlightAware
01:08AM 25.2600 55.3550 90° East  Level FlightAware
01:08AM 25.2590 55.3570 119° Southeast  Level FlightAware
01:09AM 25.2570 55.3600 126° Southeast 60 Level FlightAware
01:09AM 25.2560 55.3630 110° East 60 Level FlightAware
01:10AM 25.2540 55.3650 138° Southeast 60 Level FlightAware
01:11AM 25.2510 55.3720 115° Southeast 60 Level FlightAware
01:11AM 25.2500 55.3730 138° Southeast 60 Level FlightAware
01:12AM 25.2480 55.3760 126° Southeast 60 Level FlightAware
01:14AM 25.2470 55.3800 322° Northwest 120 Level FlightAware
01:15AM 25.4975 55.1709 322° Northwest  Level Estimated
01:15AM 25.2480 55.3800 360° North  Level FlightAware
01:16AM 25.2490 55.3790 318° Northwest 480 Level FlightAware
01:16AM 25.2530 55.3720 302° West 96 110 500 780 Climbing FlightAware
01:17AM 25.2650 55.3490 300° West 176 203 700 480 Climbing FlightAware
01:17AM 25.2730 55.3360 304° West 182 209 1,000 1,140 Climbing FlightAware
01:18AM 25.2910 55.3030 301° West 195 224 1,800 960 Climbing FlightAware
01:18AM 25.3230 55.2710 318° Northwest 226 260 2,300 780 Climbing FlightAware
01:19AM 25.3580 55.2860 21° North 249 287 2,800 1,260 Climbing FlightAware
01:19AM 25.3840 55.3060 35° Northeast 267 307 3,500 1,440 Climbing FlightAware
01:20AM 25.4230 55.3340 33° Northeast 274 315 4,500 1,620 Climbing FlightAware
01:21AM 25.4580 55.3600 34° Northeast 273 314 5,500 1,680 Climbing FlightAware
01:21AM 25.4810 55.3760 32° Northeast 273 314 6,200 1,560 Climbing FlightAware
01:21AM 25.5020 55.3910 33° Northeast 268 308 6,900 900 Climbing FlightAware
01:22AM 25.5440 55.4220 34° Northeast 271 312 7,300 360 Climbing FlightAware
01:25AM 25.7791 55.2287 323° Northwest  Level Estimated
01:26AM 25.8762 55.1485 323° Northwest  Level Estimated
01:27AM 25.9734 55.0681 323° Northwest  Level Estimated
01:28AM 26.0705 54.9877 323° Northwest  Level Estimated
01:29AM 26.1675 54.9070 323° Northwest  Level Estimated
01:30AM 26.2645 54.8263 323° Northwest  Level Estimated
01:31AM 26.3615 54.7454 323° Northwest  Level Estimated
01:32AM 26.4584 54.6644 323° Northwest  Level Estimated
01:33AM 26.5553 54.5832 323° Northwest  Level Estimated
01:34AM 26.6521 54.5019 323° Northwest  Level Estimated
01:35AM 26.7489 54.4205 323° Northwest  Level Estimated
01:36AM 26.8456 54.3390 323° Northwest  Level Estimated
01:37AM 26.9423 54.2572 323° Northwest  Level Estimated
01:38AM 27.0390 54.1754 323° Northwest  Level Estimated
01:39AM 27.1355 54.0934 323° Northwest  Level Estimated
01:40AM 27.2321 54.0113 323° Northwest  Level Estimated
01:41AM 27.3286 53.9290 323° Northwest  Level Estimated
01:42AM 27.4250 53.8466 323° Northwest  Level Estimated
01:43AM 27.5214 53.7640 323° Northwest  Level Estimated
01:44AM 27.6178 53.6813 323° Northwest  Level Estimated
01:45AM 27.7141 53.5985 323° Northwest  Level Estimated
01:46AM 27.8103 53.5155 323° Northwest  Level Estimated
01:47AM 27.9065 53.4323 323° Northwest  Level Estimated
01:48AM 28.0027 53.3490 323° Northwest  Level Estimated
01:49AM 28.0988 53.2656 323° Northwest  Level Estimated
01:50AM 28.1948 53.1820 323° Northwest  Level Estimated
01:51AM 28.2908 53.0983 322° Northwest  Level Estimated
01:52AM 28.3868 53.0144 322° Northwest  Level Estimated
01:53AM 28.4827 52.9303 322° Northwest  Level Estimated
01:54AM 28.5785 52.8461 322° Northwest  Level Estimated
01:55AM 28.6743 52.7618 322° Northwest  Level Estimated
01:56AM 28.7701 52.6773 322° Northwest  Level Estimated
01:57AM 28.8658 52.5926 322° Northwest  Level Estimated
01:58AM 28.9614 52.5078 322° Northwest  Level Estimated
01:59AM 29.0570 52.4228 322° Northwest  Level Estimated
02:00AM 29.1525 52.3377 322° Northwest  Level Estimated
02:01AM 29.2480 52.2524 322° Northwest  Level Estimated
02:02AM 29.3434 52.1669 322° Northwest  Level Estimated
02:03AM 29.4388 52.0813 322° Northwest  Level Estimated
02:04AM 29.5341 51.9956 322° Northwest  Level Estimated
02:05AM 29.6294 51.9096 322° Northwest  Level Estimated
02:06AM 29.7246 51.8235 322° Northwest  Level Estimated
02:07AM 29.8197 51.7373 322° Northwest  Level Estimated
02:08AM 29.9148 51.6509 322° Northwest  Level Estimated
02:09AM 30.0098 51.5643 322° Northwest  Level Estimated
02:10AM 30.1048 51.4775 322° Northwest  Level Estimated
02:11AM 30.1997 51.3906 322° Northwest  Level Estimated
02:12AM 30.2946 51.3035 322° Northwest  Level Estimated
02:13AM 30.3894 51.2163 322° Northwest  Level Estimated
02:14AM 30.4841 51.1288 322° Northwest  Level Estimated
02:15AM 30.5788 51.0412 321° Northwest  Level Estimated
02:16AM 30.6735 50.9534 321° Northwest  Level Estimated
02:17AM 30.7680 50.8655 321° Northwest  Level Estimated
02:18AM 30.8625 50.7774 321° Northwest  Level Estimated
02:19AM 30.9570 50.6891 321° Northwest  Level Estimated
02:20AM 31.0514 50.6007 321° Northwest  Level Estimated
02:21AM 31.1457 50.5120 321° Northwest  Level Estimated
02:22AM 31.2400 50.4232 321° Northwest  Level Estimated
02:23AM 31.3342 50.3342 321° Northwest  Level Estimated
02:24AM 31.4283 50.2450 321° Northwest  Level Estimated
02:25AM 31.5224 50.1557 321° Northwest  Level Estimated
02:26AM 31.6164 50.0662 321° Northwest  Level Estimated
02:27AM 31.7104 49.9765 321° Northwest  Level Estimated
02:28AM 31.8043 49.8866 321° Northwest  Level Estimated
02:29AM 31.8981 49.7965 321° Northwest  Level Estimated
02:30AM 31.9919 49.7062 321° Northwest  Level Estimated
02:31AM 32.0856 49.6158 321° Northwest  Level Estimated
02:32AM 32.1792 49.5252 321° Northwest  Level Estimated
02:33AM 32.2728 49.4343 321° Northwest  Level Estimated
02:34AM 32.3663 49.3433 321° Northwest  Level Estimated
02:35AM 32.4598 49.2522 321° Northwest  Level Estimated
02:36AM 32.5532 49.1608 320° Northwest  Level Estimated
02:36AM 34.4010 52.7740 320° Northwest 480 552 34,000  Level FlightAware
02:37AM 32.6465 49.0692 320° Northwest  Level Estimated
02:37AM 34.4720 52.6930 317° Northwest 478 550 34,000  Level FlightAware
02:38AM 34.5490 52.6070 317° Northwest 477 549 34,000  Level FlightAware
02:38AM 34.6140 52.5330 317° Northwest 476 548 34,000  Level FlightAware
02:39AM 34.6950 52.4410 317° Northwest 474 545 34,000  Level FlightAware
02:40AM 34.7640 52.3640 317° Northwest 473 544 34,000  Level FlightAware
02:41AM 34.8330 52.3000 323° Northwest 477 549 34,000  Level FlightAware
02:41AM 34.9040 52.2500 330° Northwest 481 554 34,000  Level FlightAware
02:42AM 35.0000 52.2030 338° Northwest 488 562 34,000  Level FlightAware
02:43AM 35.0800 52.1710 342° North 488 562 34,000  Level FlightAware
02:43AM 35.1760 52.1300 341° North 487 560 34,000  Level FlightAware
02:44AM 35.2600 52.0960 342° North 486 559 34,000  Level FlightAware
02:45AM 35.3330 52.0650 341° North 485 558 34,000  Level FlightAware
02:46AM 35.5070 51.9920 341° North 486 559 34,000  Level FlightAware
02:47AM 35.6290 51.9410 341° North 488 562 34,000  Level FlightAware
02:48AM 35.7360 51.8960 341° North 489 563 34,000  Level FlightAware
02:48AM 35.7940 51.8710 341° North 489 563 34,000  Level FlightAware
02:49AM 35.9000 51.8270 341° North 489 563 34,000  Level FlightAware
02:50AM 36.0110 51.7780 340° North 489 563 34,000  Level FlightAware
02:51AM 36.1140 51.7260 338° Northwest 483 556 34,000  Level FlightAware
02:51AM 36.1770 51.6940 338° Northwest 483 556 34,000  Level FlightAware
02:53AM 36.3490 51.6160 340° North 483 556 34,000  Level FlightAware
02:53AM 36.4130 51.5860 339° North 483 556 34,000  Level FlightAware
02:54AM 36.4980 51.5450 339° North 483 556 34,000  Level FlightAware
02:55AM 36.5850 51.5030 339° North 483 556 34,000  Level FlightAware
02:56AM 36.6480 51.4730 339° North 483 556 34,000  Level FlightAware
02:56AM 36.7140 51.4410 339° North 483 556 34,000  Level FlightAware
02:57AM 36.7850 51.4070 339° North 483 556 34,000  Level FlightAware
02:58AM 36.8720 51.3660 339° North 483 556 34,000  Level FlightAware
02:58AM 36.9360 51.3350 339° North 483 556 34,000  Level FlightAware
02:59AM 37.0170 51.2960 339° North 483 556 34,000  Level FlightAware
03:00AM 37.0940 51.2590 339° North 483 556 34,000  Level FlightAware
03:00AM 37.1570 51.2290 339° North 483 556 34,000  Level FlightAware
03:01AM 37.2820 51.1690 339° North 483 556 34,000  Level FlightAware
03:02AM 37.3450 51.1380 339° North 483 556 34,000  Level FlightAware
03:05AM 37.5772 50.9044 321° Northwest  Level Estimated
03:06AM 37.6725 50.8080 321° Northwest  Level Estimated
03:07AM 37.7677 50.7114 321° Northwest  Level Estimated
03:08AM 37.8628 50.6144 321° Northwest  Level Estimated
03:09AM 37.9579 50.5173 321° Northwest  Level Estimated
03:10AM 38.0528 50.4199 321° Northwest  Level Estimated
03:11AM 38.1477 50.3222 321° Northwest  Level Estimated
03:12AM 38.2425 50.2243 321° Northwest  Level Estimated
03:13AM 38.3373 50.1261 321° Northwest  Level Estimated
03:14AM 38.4319 50.0277 321° Northwest  Level Estimated
03:15AM 38.5265 49.9290 321° Northwest  Level Estimated
03:16AM 38.6210 49.8301 321° Northwest  Level Estimated
03:17AM 38.7154 49.7309 321° Northwest  Level Estimated
03:18AM 38.8097 49.6314 321° Northwest  Level Estimated
03:19AM 38.9039 49.5317 321° Northwest  Level Estimated
03:20AM 38.9981 49.4316 320° Northwest  Level Estimated
03:21AM 39.0921 49.3314 320° Northwest  Level Estimated
03:22AM 39.1861 49.2309 320° Northwest  Level Estimated
03:23AM 39.2800 49.1301 320° Northwest  Level Estimated
03:24AM 39.3738 49.0290 320° Northwest  Level Estimated
03:25AM 39.4675 48.9276 320° Northwest  Level Estimated
03:26AM 39.5611 48.8260 320° Northwest  Level Estimated
03:27AM 39.6546 48.7241 320° Northwest  Level Estimated
03:28AM 39.7481 48.6220 320° Northwest  Level Estimated
03:29AM 39.8414 48.5195 320° Northwest  Level Estimated
03:30AM 39.9347 48.4168 320° Northwest  Level Estimated
03:31AM 40.0279 48.3138 320° Northwest  Level Estimated
03:32AM 40.1210 48.2105 320° Northwest  Level Estimated
03:33AM 40.2140 48.1069 320° Northwest  Level Estimated
03:34AM 40.3069 48.0031 320° Northwest  Level Estimated
03:35AM 40.3997 47.8989 319° Northwest  Level Estimated
03:36AM 40.4924 47.7945 319° Northwest  Level Estimated
03:37AM 40.5850 47.6898 319° Northwest  Level Estimated
03:38AM 40.6775 47.5848 319° Northwest  Level Estimated
03:39AM 40.7699 47.4795 319° Northwest  Level Estimated
03:40AM 40.8623 47.3739 319° Northwest  Level Estimated
03:41AM 40.9545 47.2680 319° Northwest  Level Estimated
03:42AM 41.0466 47.1618 319° Northwest  Level Estimated
03:43AM 41.1387 47.0553 319° Northwest  Level Estimated
03:44AM 41.2306 46.9486 319° Northwest  Level Estimated
03:45AM 41.3225 46.8415 319° Northwest  Level Estimated
03:46AM 41.4142 46.7341 319° Northwest  Level Estimated
03:47AM 41.5058 46.6264 319° Northwest  Level Estimated
03:48AM 41.5974 46.5184 319° Northwest  Level Estimated
03:49AM 41.6888 46.4101 319° Northwest  Level Estimated
03:50AM 41.7802 46.3015 318° Northwest  Level Estimated
03:51AM 41.8714 46.1926 318° Northwest  Level Estimated
03:52AM 41.9625 46.0834 318° Northwest  Level Estimated
03:53AM 42.0536 45.9739 318° Northwest  Level Estimated
03:54AM 42.1445 45.8640 318° Northwest  Level Estimated
03:55AM 42.2353 45.7538 318° Northwest  Level Estimated
03:56AM 42.3260 45.6433 318° Northwest  Level Estimated
03:57AM 42.4166 45.5325 318° Northwest  Level Estimated
03:58AM 42.5071 45.4214 318° Northwest  Level Estimated
03:59AM 42.5975 45.3100 318° Northwest  Level Estimated
04:00AM 42.6878 45.1982 318° Northwest  Level Estimated
04:01AM 42.7780 45.0861 318° Northwest  Level Estimated
04:02AM 42.8680 44.9737 318° Northwest  Level Estimated
04:03AM 42.9580 44.8609 317° Northwest  Level Estimated
04:04AM 43.0478 44.7478 317° Northwest  Level Estimated
04:04AM 45.0870 47.6400 317° Northwest 469 540 34,000  Level FlightAware
04:04AM 45.0400 47.6720 154° Southeast 470 541 34,000  Level FlightAware
04:05AM 43.1376 44.6344 317° Northwest  Level Estimated
04:05AM 45.1250 47.6140 334° Northwest 470 541 34,000  Level FlightAware
04:06AM 45.0880 47.6390 154° Southeast 468 539 34,000  Level FlightAware
04:07AM 45.4220 47.4150 335° Northwest 468 539 34,000  Level FlightAware
04:07AM 45.4930 47.3640 333° Northwest 468 539 34,000  Level FlightAware
04:08AM 45.6200 47.2770 334° Northwest 467 537 34,000  Level FlightAware
04:09AM 45.7300 47.2000 334° Northwest 467 537 34,000  Level FlightAware
04:10AM 45.8180 47.1370 333° Northwest 468 539 34,000  Level FlightAware
04:10AM 45.8650 47.1040 334° Northwest 469 540 34,000  Level FlightAware
04:11AM 45.9550 47.0400 334° Northwest 469 540 34,000  Level FlightAware
04:12AM 46.0260 46.9850 332° Northwest 469 540 34,000  Level FlightAware
04:13AM 46.1370 46.8970 331° Northwest 470 541 34,000  Level FlightAware
04:13AM 46.1370 46.8970 331° Northwest 471 542 34,000  Level FlightAware
04:14AM 46.2780 46.7770 330° Northwest 469 540 34,000  Level FlightAware
04:15AM 46.3540 46.7070 328° Northwest 468 539 34,000  Level FlightAware
04:15AM 46.4250 46.6420 328° Northwest 468 539 34,000  Level FlightAware
04:16AM 46.5220 46.5520 327° Northwest 468 539 34,000  Level FlightAware
04:17AM 46.5960 46.4840 328° Northwest 467 537 34,000  Level FlightAware
04:18AM 46.6710 46.4140 327° Northwest 466 536 34,000  Level FlightAware
04:18AM 46.7610 46.3300 327° Northwest 467 537 34,000  Level FlightAware
04:19AM 46.8250 46.2700 327° Northwest 470 541 34,000  Level FlightAware
04:20AM 46.9080 46.1910 327° Northwest 472 543 34,000  Level FlightAware
04:20AM 46.9720 46.1300 327° Northwest 473 544 34,000  Level FlightAware
04:21AM 47.0710 46.0370 327° Northwest 475 547 34,000  Level FlightAware
04:22AM 47.1460 45.9660 327° Northwest 477 549 34,000  Level FlightAware
04:23AM 47.2310 45.8850 327° Northwest 475 547 34,000  Level FlightAware
04:23AM 47.3110 45.8090 327° Northwest 474 545 34,000  Level FlightAware
04:24AM 47.4070 45.7150 326° Northwest 476 548 34,000  Level FlightAware
04:25AM 47.4670 45.6550 326° Northwest 476 548 34,000  Level FlightAware
04:26AM 47.5250 45.5980 326° Northwest 476 548 34,000  Level FlightAware
04:26AM 47.5990 45.5230 326° Northwest 476 548 34,000  Level FlightAware
04:27AM 47.6570 45.4660 327° Northwest 476 548 34,000  Level FlightAware
04:28AM 47.7310 45.3910 326° Northwest 476 548 34,000  Level FlightAware
04:29AM 47.7870 45.3350 326° Northwest 476 548 34,000  Level FlightAware
04:29AM 47.8600 45.2620 326° Northwest 476 548 34,000  Level FlightAware
04:30AM 47.9130 45.2080 326° Northwest 476 548 34,000  Level FlightAware
04:31AM 47.9890 45.1320 326° Northwest 476 548 34,000  Level FlightAware
04:31AM 48.0490 45.0710 326° Northwest 476 548 34,000  Level FlightAware
04:32AM 48.1250 44.9940 326° Northwest 476 548 34,000  Level FlightAware
04:33AM 48.3400 44.7960 329° Northwest 475 547 34,000  Level FlightAware
04:33AM 48.4170 44.7170 326° Northwest 477 549 34,000  Level FlightAware
04:34AM 48.4990 44.6340 326° Northwest 478 550 34,000  Level FlightAware
04:35AM 48.5720 44.5590 326° Northwest 479 551 34,000  Level FlightAware
04:36AM 48.6520 44.4760 326° Northwest 480 552 34,000  Level FlightAware
04:36AM 48.7100 44.4170 326° Northwest 482 555 34,000  Level FlightAware
04:37AM 48.7870 44.3340 325° Northwest 483 556 34,000  Level FlightAware
04:38AM 48.8570 44.2390 318° Northwest 484 557 34,000  Level FlightAware
04:38AM 48.9160 44.1580 318° Northwest 486 559 34,000  Level FlightAware
04:39AM 48.9840 44.0640 318° Northwest 485 558 34,000  Level FlightAware
04:40AM 49.0560 43.9640 318° Northwest 487 560 34,000  Level FlightAware
04:40AM 49.1180 43.8770 317° Northwest 488 562 34,000  Level FlightAware
04:41AM 49.1940 43.7710 318° Northwest 487 560 34,000  Level FlightAware
04:42AM 49.2610 43.6730 316° Northwest 489 563 34,000  Level FlightAware
04:42AM 49.3190 43.5650 310° West 493 567 34,000  Level FlightAware
04:43AM 49.3990 43.4130 309° West 493 567 34,000  Level FlightAware
04:44AM 49.4530 43.3070 308° West 494 568 34,000  Level FlightAware
04:45AM 49.5480 43.1240 309° West 496 571 34,000  Level FlightAware
04:46AM 49.6100 43.0030 308° West 496 571 34,000  Level FlightAware
04:47AM 49.6820 42.8630 309° West 494 568 34,000  Level FlightAware
04:47AM 49.7450 42.7380 308° West 493 567 34,000 60 Level FlightAware
04:48AM 49.8020 42.6260 308° West 496 571 34,100 360 Climbing FlightAware
04:49AM 49.8590 42.5120 308° West 499 574 34,500 660 Climbing FlightAware
04:49AM 49.9200 42.3920 308° West 498 573 35,100 1,080 Climbing FlightAware
04:50AM 49.9740 42.2830 308° West 488 562 36,000 600 Climbing FlightAware
04:51AM 50.0440 42.1430 308° West 494 568 36,000  Level FlightAware
04:51AM 50.1000 42.0300 308° West 493 567 36,000  Level FlightAware
04:52AM 50.1550 41.9190 308° West 492 566 36,000  Level FlightAware
04:53AM 50.2170 41.7920 307° West 490 564 36,000  Level FlightAware
04:54AM 50.2710 41.6800 307° West 490 564 36,000  Level FlightAware
04:54AM 50.3260 41.5690 308° West 489 563 36,000  Level FlightAware
04:55AM 50.3960 41.4520 313° West 489 563 36,000  Level FlightAware
04:56AM 50.4500 41.3590 312° West 489 563 36,000  Level FlightAware
04:56AM 50.4960 41.2780 312° West 489 563 36,000  Level FlightAware
04:57AM 50.5580 41.1700 312° West 489 563 36,000  Level FlightAware
04:58AM 50.6040 41.0890 312° West 489 563 36,000  Level FlightAware
04:58AM 50.6630 40.9850 312° West 489 563 36,000  Level FlightAware
04:59AM 50.7260 40.8750 312° West 489 563 36,000  Level FlightAware
05:00AM 50.7770 40.7860 312° West 489 563 36,000  Level FlightAware
05:01AM 50.8230 40.7050 312° West 489 563 36,000  Level FlightAware
05:01AM 50.8860 40.5940 312° West 489 563 36,000  Level FlightAware
05:02AM 50.9320 40.5120 312° West 489 563 36,000  Level FlightAware
05:03AM 50.9940 40.4040 312° West 489 563 36,000  Level FlightAware
05:03AM 51.0400 40.3220 312° West 489 563 36,000  Level FlightAware
05:04AM 51.0990 40.2170 312° West 489 563 36,000  Level FlightAware
05:05AM 51.1590 40.1120 312° West 489 563 36,000  Level FlightAware
05:07AM 51.2963 39.8765 313° West  Level Estimated
05:08AM 51.3792 39.7331 313° West  Level Estimated
05:09AM 51.4620 39.5891 313° West  Level Estimated
05:10AM 51.5446 39.4447 313° West  Level Estimated
05:11AM 51.6271 39.2997 313° West  Level Estimated
05:12AM 51.7093 39.1542 312° West  Level Estimated
05:13AM 51.7914 39.0081 312° West  Level Estimated
05:14AM 51.8733 38.8615 312° West  Level Estimated
05:15AM 51.9550 38.7144 312° West  Level Estimated
05:15AM 52.1990 38.2380 312° West 464 534 36,000  Level FlightAware
05:16AM 52.0365 38.5668 312° West  Level Estimated
05:16AM 52.3050 38.1430 331° Northwest 462 532 36,000  Level FlightAware
05:17AM 52.3800 38.0800 333° Northwest 463 533 36,000  Level FlightAware
05:18AM 52.4520 38.0200 333° Northwest 462 532 36,000  Level FlightAware
05:18AM 52.5330 37.9520 333° Northwest 461 531 36,000  Level FlightAware
05:19AM 52.6110 37.8860 333° Northwest 460 529 36,000  Level FlightAware
05:20AM 52.6990 37.8120 333° Northwest 461 531 36,000  Level FlightAware
05:20AM 52.7750 37.7470 333° Northwest 462 532 36,000  Level FlightAware
05:21AM 52.8480 37.6850 333° Northwest 462 532 36,000  Level FlightAware
05:22AM 52.9320 37.6140 333° Northwest 462 532 36,000  Level FlightAware
05:22AM 52.9850 37.5690 333° Northwest 462 532 36,000  Level FlightAware
05:23AM 53.0820 37.4840 332° Northwest 462 532 36,000  Level FlightAware
05:24AM 53.1560 37.4210 333° Northwest 462 532 36,000  Level FlightAware
05:24AM 53.2140 37.3700 332° Northwest 460 529 36,000  Level FlightAware
05:25AM 53.3000 37.2950 332° Northwest 459 528 36,000  Level FlightAware
05:26AM 53.3710 37.2330 332° Northwest 460 529 36,000  Level FlightAware
05:26AM 53.4430 37.1700 332° Northwest 461 531 36,000  Level FlightAware
05:27AM 53.5510 37.0720 332° Northwest 462 532 36,000  Level FlightAware
05:28AM 53.6270 36.9730 322° Northwest 465 535 36,000  Level FlightAware
05:29AM 53.6910 36.8730 317° Northwest 462 532 36,000  Level FlightAware
05:29AM 53.7590 36.7680 318° Northwest 461 531 36,000  Level FlightAware
05:31AM 53.8660 36.6010 317° Northwest 461 531 36,000  Level FlightAware
05:31AM 53.9480 36.4720 317° Northwest 462 532 36,000  Level FlightAware
05:32AM 54.0100 36.3750 317° Northwest 461 531 36,000  Level FlightAware
05:33AM 54.0720 36.2760 317° Northwest 458 527 36,000  Level FlightAware
05:33AM 54.1260 36.1900 317° Northwest 457 526 36,000  Level FlightAware
05:34AM 54.1920 36.0840 317° Northwest 457 526 36,000  Level FlightAware
05:34AM 54.2330 36.0190 317° Northwest 457 526 36,000  Level FlightAware
05:35AM 54.3020 35.9080 317° Northwest 458 527 36,000  Level FlightAware
05:36AM 54.3630 35.8130 318° Northwest 457 526 36,000  Level FlightAware
05:37AM 54.4260 35.7120 317° Northwest 457 526 36,000  Level FlightAware
05:37AM 54.4940 35.6050 318° Northwest 457 526 36,000  Level FlightAware
05:38AM 54.5660 35.4900 317° Northwest 458 527 36,000  Level FlightAware
05:39AM 54.6230 35.4010 318° Northwest 456 525 36,000  Level FlightAware
05:39AM 54.6900 35.2960 318° Northwest 455 524 36,000  Level FlightAware
05:40AM 54.7570 35.1830 316° Northwest 455 524 36,000  Level FlightAware
05:41AM 54.8120 35.0720 311° West 455 524 36,000  Level FlightAware
05:42AM 54.8720 34.9530 311° West 456 525 36,000  Level FlightAware
05:42AM 54.9290 34.8370 311° West 456 525 36,000  Level FlightAware
05:43AM 54.9880 34.7180 311° West 456 525 36,000  Level FlightAware
05:44AM 55.0380 34.6170 311° West 455 524 36,000  Level FlightAware
05:44AM 55.1040 34.4880 312° West 456 525 36,000  Level FlightAware
05:45AM 55.1510 34.3930 311° West 455 524 36,000  Level FlightAware
05:46AM 55.2060 34.2810 311° West 454 522 36,000  Level FlightAware
05:46AM 55.2670 34.1540 310° West 452 520 36,000  Level FlightAware
05:47AM 55.3170 34.0510 310° West 452 520 36,000  Level FlightAware
05:48AM 55.3470 33.9880 310° West 453 521 36,000  Level FlightAware
05:48AM 55.4160 33.8440 310° West 455 524 36,000  Level FlightAware
05:49AM 55.4790 33.7130 310° West 456 525 36,000  Level FlightAware
05:50AM 55.5400 33.5900 311° West 456 525 36,000  Level FlightAware
05:50AM 55.5960 33.4740 311° West 456 525 36,000  Level FlightAware
05:51AM 55.6540 33.3560 311° West 457 526 36,000  Level FlightAware
05:52AM 55.7160 33.2280 311° West 457 526 36,000  Level FlightAware
05:52AM 55.7610 33.1340 310° West 457 526 36,000  Level FlightAware
05:53AM 55.8180 33.0160 311° West 456 525 36,000  Level FlightAware
05:54AM 55.8750 32.8870 308° West 455 524 36,000  Level FlightAware
05:54AM 55.9120 32.7930 305° West 456 525 36,000  Level FlightAware
05:55AM 55.9690 32.6510 306° West 457 526 36,000  Level FlightAware
05:56AM 56.0130 32.5400 305° West 456 525 36,000  Level FlightAware
05:56AM 56.0690 32.3980 305° West 453 521 36,000  Level FlightAware
05:57AM 56.1180 32.2720 305° West 451 519 36,000  Level FlightAware
05:58AM 56.1690 32.1400 305° West 450 518 36,000  Level FlightAware
05:59AM 56.2150 32.0190 304° West 450 518 36,000  Level FlightAware
05:59AM 56.2610 31.8920 303° West 452 520 36,000  Level FlightAware
06:00AM 56.3320 31.6970 303° West 452 520 36,000  Level FlightAware
06:01AM 56.3680 31.5950 303° West 452 520 36,000  Level FlightAware
06:02AM 56.4150 31.4660 303° West 452 520 36,000  Level FlightAware
06:02AM 56.4500 31.3680 303° West 452 520 36,000  Level FlightAware
06:03AM 56.5090 31.2040 303° West 452 520 36,000  Level FlightAware
06:04AM 56.5430 31.1060 302° West 452 520 36,000  Level FlightAware
06:05AM 56.5900 30.9770 304° West 452 520 36,000  Level FlightAware
06:05AM 56.6270 30.8740 303° West 452 520 36,000  Level FlightAware
06:06AM 56.6730 30.7430 303° West 452 520 36,000  Level FlightAware
06:07AM 56.7090 30.6430 303° West 452 520 36,000  Level FlightAware
06:07AM 56.7530 30.5180 303° West 452 520 36,000  Level FlightAware
06:08AM 56.7860 30.4250 303° West 452 520 36,000  Level FlightAware
06:09AM 56.9620 30.0610 312° West 471 542 36,000  Level FlightAware
06:09AM 57.0020 29.9500 304° West 473 544 36,000  Level FlightAware
06:10AM 57.0580 29.7940 303° West 474 545 36,000  Level FlightAware
06:11AM 57.0930 29.6950 303° West 474 545 36,000  Level FlightAware
06:12AM 57.1550 29.5250 304° West 475 547 36,000  Level FlightAware
06:12AM 57.1930 29.4180 303° West 475 547 36,000  Level FlightAware
06:13AM 57.2490 29.2580 303° West 473 544 36,000  Level FlightAware
06:14AM 57.3010 29.1110 303° West 473 544 36,000  Level FlightAware
06:14AM 57.3430 28.9920 303° West 472 543 36,000  Level FlightAware
06:16AM 57.4940 28.5570 303° West 476 548 36,000  Level FlightAware
06:17AM 57.5440 28.4100 302° West 477 549 36,000  Level FlightAware
06:18AM 57.5950 28.2590 302° West 479 551 36,000  Level FlightAware
06:18AM 57.6430 28.1170 302° West 480 552 36,000  Level FlightAware
06:19AM 57.6960 27.9610 302° West 479 551 36,000  Level FlightAware
06:20AM 57.7410 27.8260 302° West 477 549 36,000  Level FlightAware
06:20AM 57.7840 27.6970 302° West 476 548 36,000  Level FlightAware
06:21AM 57.8370 27.5450 303° West 480 552 36,000  Level FlightAware
06:22AM 57.9030 27.4340 318° Northwest 484 557 36,000  Level FlightAware
06:22AM 57.9710 27.3190 318° Northwest 484 557 36,000  Level FlightAware
06:23AM 58.0370 27.2040 317° Northwest 484 557 36,000  Level FlightAware
06:24AM 58.1120 27.0740 318° Northwest 485 558 36,000  Level FlightAware
06:25AM 58.1780 26.9580 317° Northwest 485 558 36,000  Level FlightAware
06:25AM 58.2510 26.8300 317° Northwest 486 559 36,000  Level FlightAware
06:26AM 58.3180 26.7120 317° Northwest 488 562 36,000  Level FlightAware
06:27AM 58.3920 26.5800 317° Northwest 487 560 36,000  Level FlightAware
06:27AM 58.4510 26.4750 317° Northwest 485 558 36,000  Level FlightAware
06:28AM 58.5190 26.3540 317° Northwest 483 556 36,000  Level FlightAware
06:29AM 58.5880 26.2290 317° Northwest 481 554 36,000  Level FlightAware
06:29AM 58.6470 26.1220 317° Northwest 482 555 36,000  Level FlightAware
06:30AM 58.7110 26.0060 317° Northwest 483 556 36,000  Level FlightAware
06:31AM 58.7770 25.8830 316° Northwest 483 556 36,000  Level FlightAware
06:31AM 58.8460 25.7560 316° Northwest 483 556 36,000  Level FlightAware
06:32AM 58.9230 25.6140 316° Northwest 483 556 36,000  Level FlightAware
06:33AM 58.9900 25.5020 319° Northwest 484 557 36,000  Level FlightAware
06:34AM 59.0610 25.3940 322° Northwest 485 558 36,000  Level FlightAware
06:34AM 59.1300 25.2850 321° Northwest 483 556 36,000  Level FlightAware
06:35AM 59.2000 25.1750 321° Northwest 484 557 36,000  Level FlightAware
06:36AM 59.2730 25.0600 321° Northwest 485 558 36,000  Level FlightAware
06:36AM 59.3330 24.9640 321° Northwest 487 560 36,000  Level FlightAware
06:37AM 59.4120 24.8460 323° Northwest 490 564 36,000  Level FlightAware
06:38AM 59.4910 24.7600 331° Northwest 492 566 36,000  Level FlightAware
06:38AM 59.5810 24.6720 334° Northwest 490 564 36,000  Level FlightAware
06:39AM 59.6580 24.5940 333° Northwest 489 563 36,000  Level FlightAware
06:40AM 59.7470 24.5010 332° Northwest 489 563 36,000  Level FlightAware
06:40AM 59.8140 24.3680 315° West 489 563 36,000  Level FlightAware
06:41AM 59.8740 24.2360 312° West 490 564 36,000  Level FlightAware
06:42AM 59.9320 24.1060 312° West 490 564 36,000  Level FlightAware
06:42AM 59.9920 23.9690 311° West 489 563 36,000  Level FlightAware
06:43AM 60.0520 23.8320 311° West 490 564 36,000  Level FlightAware
06:44AM 60.1150 23.6870 311° West 489 563 36,000  Level FlightAware
06:44AM 60.1800 23.5360 311° West 489 563 36,000  Level FlightAware
06:45AM 60.2400 23.3980 311° West 489 563 36,000  Level FlightAware
06:46AM 60.3050 23.2460 311° West 490 564 36,000  Level FlightAware
06:47AM 60.3630 23.1090 311° West 489 563 36,000  Level FlightAware
06:47AM 60.4260 22.9600 311° West 489 563 36,000  Level FlightAware
06:48AM 60.4870 22.8150 311° West 489 563 36,000  Level FlightAware
06:49AM 60.5450 22.6750 310° West 490 564 36,000  Level FlightAware
06:49AM 60.6090 22.5210 310° West 489 563 36,000  Level FlightAware
06:50AM 60.6570 22.4030 310° West 489 563 36,000  Level FlightAware
06:51AM 60.7220 22.2450 310° West 489 563 36,000  Level FlightAware
06:51AM 60.7820 22.0970 310° West 489 563 36,000  Level FlightAware
06:52AM 60.8390 21.9560 310° West 491 565 36,000  Level FlightAware
06:53AM 60.9030 21.7960 309° West 491 565 36,000  Level FlightAware
06:53AM 60.9610 21.6500 309° West 490 564 36,000  Level FlightAware
06:54AM 61.0230 21.4940 309° West 489 563 36,000  Level FlightAware
06:55AM 61.0800 21.3490 309° West 489 563 36,000  Level FlightAware
06:55AM 61.1340 21.2100 309° West 490 564 36,000  Level FlightAware
06:56AM 61.1910 21.0650 309° West 491 565 36,000  Level FlightAware
06:57AM 61.2530 20.9030 309° West 492 566 36,000  Level FlightAware
06:57AM 61.3070 20.7630 309° West 493 567 36,000  Level FlightAware
06:58AM 61.3710 20.5940 308° West 494 568 36,000  Level FlightAware
06:59AM 61.4260 20.4500 309° West 494 568 36,000  Level FlightAware
07:00AM 61.5100 20.2270 308° West 495 570 36,000  Level FlightAware
07:01AM 61.5670 20.0720 308° West 496 571 36,000  Level FlightAware
07:01AM 61.6410 19.8730 308° West 496 571 36,000  Level FlightAware
07:02AM 61.7000 19.7120 308° West 494 568 36,000  Level FlightAware
07:03AM 61.7580 19.5530 308° West 496 571 36,000  Level FlightAware
07:03AM 61.8210 19.4110 313° West 502 578 36,000  Level FlightAware
07:05AM 61.9370 19.1690 316° Northwest 499 574 36,000  Level FlightAware
07:05AM 62.0060 19.0250 316° Northwest 499 574 36,000  Level FlightAware
07:06AM 62.0710 18.8850 315° West 502 578 36,000  Level FlightAware
07:07AM 62.1300 18.7590 315° West 501 577 36,000  Level FlightAware
07:07AM 62.2010 18.6050 315° West 500 575 36,000  Level FlightAware
07:08AM 62.2580 18.4820 315° West 503 579 36,000  Level FlightAware
07:09AM 62.3280 18.3290 315° West 505 581 36,000  Level FlightAware
07:09AM 62.3860 18.2010 314° West 507 583 36,000  Level FlightAware
07:10AM 62.4510 18.0570 314° West 509 586 36,000  Level FlightAware
07:10AM 62.5010 17.9470 315° West 509 586 36,000  Level FlightAware
07:11AM 62.5740 17.7820 314° West 509 586 36,000  Level FlightAware
07:12AM 62.6560 17.5990 314° West 508 585 36,000  Level FlightAware
07:13AM 62.7200 17.4510 313° West 501 577 36,000  Level FlightAware
07:13AM 62.7850 17.3030 314° West 501 577 36,000  Level FlightAware
07:14AM 62.8490 17.1550 313° West 498 573 36,000  Level FlightAware
07:15AM 62.9050 17.0260 314° West 496 571 36,000  Level FlightAware
07:15AM 62.9770 16.8590 314° West 500 575 36,000  Level FlightAware
07:16AM 63.0400 16.7100 313° West 500 575 36,000  Level FlightAware
07:17AM 63.0950 16.5800 313° West 498 573 36,000  Level FlightAware
07:17AM 63.1650 16.4130 313° West 496 571 36,000  Level FlightAware
07:18AM 63.2260 16.2650 312° West 487 560 36,000  Level FlightAware
07:19AM 63.2870 16.1180 313° West 485 558 36,000  Level FlightAware
07:19AM 63.3480 15.9710 313° West 485 558 36,000  Level FlightAware
07:20AM 63.4180 15.7990 312° West 485 558 36,000  Level FlightAware
07:21AM 63.4760 15.6540 312° West 484 557 36,000  Level FlightAware
07:21AM 63.5370 15.5020 312° West 486 559 36,000  Level FlightAware
07:22AM 63.5990 15.3470 312° West 486 559 36,000  Level FlightAware
07:23AM 63.6600 15.1940 312° West 488 562 36,000  Level FlightAware
07:23AM 63.7130 15.0590 312° West 488 562 36,000  Level FlightAware
07:24AM 63.7810 14.8860 312° West 491 565 36,000  Level FlightAware
07:25AM 63.8410 14.7320 312° West 490 564 36,000  Level FlightAware
07:26AM 63.9070 14.5600 311° West 488 562 36,000  Level FlightAware
07:26AM 63.9660 14.4050 311° West 488 562 36,000  Level FlightAware
07:27AM 64.0240 14.2520 311° West 491 565 36,000  Level FlightAware
07:28AM 64.0870 14.0850 311° West 492 566 36,000  Level FlightAware
07:28AM 64.1470 13.9260 311° West 495 570 36,000  Level FlightAware
07:29AM 64.2040 13.7730 311° West 497 572 36,000  Level FlightAware
07:30AM 64.3000 13.5130 310° West 499 574 36,000  Level FlightAware
07:31AM 64.3640 13.3360 310° West 496 571 36,000  Level FlightAware
07:31AM 64.4190 13.1860 310° West 492 566 36,000  Level FlightAware
07:32AM 64.4820 13.0080 309° West 489 563 36,000  Level FlightAware
07:33AM 64.5430 12.8390 310° West 490 564 36,000  Level FlightAware
07:33AM 64.6000 12.6750 309° West 490 564 36,000  Level FlightAware
07:34AM 64.6630 12.4960 309° West 489 563 36,000  Level FlightAware
07:35AM 64.7210 12.3310 310° West 492 566 36,000 60 Level FlightAware
07:35AM 64.7750 12.1740 309° West 494 568 36,100 180 Climbing FlightAware
07:36AM 64.8330 12.0050 309° West 502 578 36,300 480 Climbing FlightAware
07:37AM 64.8970 11.8180 309° West 503 579 36,800 480 Climbing FlightAware
07:37AM 64.9470 11.6710 309° West 506 582 37,000 480 Climbing FlightAware
07:38AM 65.0030 11.5020 308° West 508 585 37,400 360 Climbing FlightAware
07:39AM 65.0620 11.3250 308° West 514 592 37,500 300 Climbing FlightAware
07:40AM 65.1290 11.1220 308° West 512 589 37,900 300 Climbing FlightAware
07:40AM 65.1870 10.9460 308° West 511 588 38,000 60 Climbing FlightAware
07:41AM 65.2500 10.7520 308° West 507 583 38,000  Level FlightAware
07:42AM 65.3060 10.5760 307° West 505 581 38,000  Level FlightAware
07:42AM 65.3600 10.4080 308° West 505 581 38,000  Level FlightAware
07:43AM 65.4110 10.2480 307° West 506 582 38,000  Level FlightAware
07:44AM 65.4800 10.0290 307° West 504 580 38,000  Level FlightAware
07:44AM 65.5370 9.8450 307° West 502 578 38,000  Level FlightAware
07:45AM 65.5920 9.6640 306° West 502 578 38,000  Level FlightAware
07:46AM 65.6610 9.4410 307° West 501 577 38,000  Level FlightAware
07:47AM 65.7150 9.2630 306° West 502 578 38,000  Level FlightAware
07:47AM 65.7760 9.0600 306° West 503 579 38,000  Level FlightAware
07:48AM 65.8210 8.9120 307° West 502 578 38,000  Level FlightAware
07:49AM 65.8800 8.7060 305° West 502 578 38,000  Level FlightAware
07:49AM 65.9200 8.5640 305° West 502 578 38,000  Level FlightAware
07:50AM 65.9590 8.4290 305° West 502 578 38,000  Level FlightAware
07:51AM 66.0130 8.2380 305° West 502 578 38,000  Level FlightAware
07:51AM 66.0550 8.0910 305° West 502 578 38,000  Level FlightAware
07:52AM 66.0960 7.9470 305° West 502 578 38,000  Level FlightAware
07:53AM 66.1500 7.7550 305° West 502 578 38,000  Level FlightAware
07:53AM 66.1920 7.6070 305° West 502 578 38,000  Level FlightAware
07:54AM 66.2340 7.4590 305° West 502 578 38,000  Level FlightAware
07:55AM 66.2860 7.2740 305° West 502 578 38,000  Level FlightAware
07:55AM 66.3280 7.1250 305° West 502 578 38,000  Level FlightAware
07:56AM 66.3960 6.8830 305° West 502 578 38,000  Level FlightAware
07:57AM 66.4360 6.7370 304° West 502 578 38,000  Level FlightAware
07:57AM 66.4780 6.5880 305° West 502 578 38,000  Level FlightAware
08:00AM 66.5236 5.9754 281° West  Level Estimated
08:01AM 66.5450 5.6757 280° West  Level Estimated
08:02AM 66.5658 5.3756 280° West  Level Estimated
08:03AM 66.5860 5.0749 280° West  Level Estimated
08:04AM 66.6057 4.7738 279° West  Level Estimated
08:05AM 66.6248 4.4722 279° West  Level Estimated
08:06AM 66.6433 4.1701 279° West  Level Estimated
08:07AM 66.6612 3.8676 279° West  Level Estimated
08:08AM 66.6785 3.5647 278° West  Level Estimated
08:09AM 66.6953 3.2613 278° West  Level Estimated
08:10AM 66.7115 2.9576 278° West  Level Estimated
08:11AM 66.7271 2.6534 278° West  Level Estimated
08:12AM 66.7421 2.3489 277° West  Level Estimated
08:13AM 66.7565 2.0440 277° West  Level Estimated
08:14AM 66.7703 1.7387 277° West  Level Estimated
08:15AM 66.7835 1.4331 276° West  Level Estimated
08:16AM 66.7962 1.1272 276° West  Level Estimated
08:17AM 66.8082 0.8210 276° West  Level Estimated
08:18AM 66.8197 0.5145 276° West  Level Estimated
08:19AM 66.8305 0.2077 275° West  Level Estimated
08:20AM 66.8408 -0.0993 275° West  Level Estimated
08:21AM 66.8505 -0.4066 275° West  Level Estimated
08:22AM 66.8596 -0.7142 274° West  Level Estimated
08:23AM 66.8680 -1.0219 274° West  Level Estimated
08:24AM 66.8759 -1.3299 274° West  Level Estimated
08:25AM 66.8832 -1.6380 274° West  Level Estimated
08:26AM 66.8899 -1.9463 273° West  Level Estimated
08:27AM 66.8960 -2.2548 273° West  Level Estimated
08:28AM 66.9014 -2.5635 273° West  Level Estimated
08:29AM 66.9063 -2.8722 272° West  Level Estimated
08:30AM 66.9106 -3.1811 272° West  Level Estimated
08:31AM 66.9143 -3.4901 272° West  Level Estimated
08:32AM 66.9174 -3.7992 272° West  Level Estimated
08:33AM 66.9198 -4.1083 271° West  Level Estimated
08:34AM 66.9217 -4.4175 271° West  Level Estimated
08:35AM 66.9230 -4.7267 271° West  Level Estimated
08:36AM 66.9237 -5.0360 270° West  Level Estimated
08:37AM 66.9237 -5.3453 270° West  Level Estimated
08:38AM 66.9232 -5.6545 270° West  Level Estimated
08:39AM 66.9221 -5.9638 270° West  Level Estimated
08:40AM 66.9203 -6.2730 269° West  Level Estimated
08:41AM 66.9180 -6.5821 269° West  Level Estimated
08:42AM 66.9151 -6.8912 269° West  Level Estimated
08:43AM 66.9115 -7.2002 268° West  Level Estimated
08:44AM 66.9074 -7.5091 268° West  Level Estimated
08:45AM 66.9027 -7.8179 268° West  Level Estimated
08:46AM 66.8973 -8.1266 268° West  Level Estimated
08:47AM 66.8914 -8.4351 267° West  Level Estimated
08:48AM 66.8848 -8.7435 267° West  Level Estimated
08:49AM 66.8777 -9.0517 267° West  Level Estimated
08:50AM 66.8700 -9.3597 266° West  Level Estimated
08:51AM 66.8616 -9.6675 266° West  Level Estimated
08:52AM 66.8527 -9.9751 266° West  Level Estimated
08:53AM 66.8432 -10.2824 266° West  Level Estimated
08:54AM 66.8331 -10.5896 265° West  Level Estimated
08:55AM 66.8223 -10.8964 265° West  Level Estimated
08:56AM 66.8110 -11.2030 265° West  Level Estimated
08:57AM 66.7991 -11.5093 265° West  Level Estimated
08:58AM 66.7866 -11.8152 264° West  Level Estimated
08:59AM 66.7735 -12.1209 264° West  Level Estimated
09:00AM 66.7598 -12.4262 264° West  Level Estimated
09:01AM 66.7456 -12.7312 263° West  Level Estimated
09:02AM 66.7307 -13.0358 263° West  Level Estimated
09:03AM 66.7153 -13.3401 263° West  Level Estimated
09:04AM 66.6992 -13.6439 263° West  Level Estimated
09:05AM 66.6826 -13.9474 262° West  Level Estimated
09:06AM 66.6654 -14.2504 262° West  Level Estimated
09:07AM 66.6477 -14.5531 262° West  Level Estimated
09:08AM 66.6293 -14.8552 261° West  Level Estimated
09:09AM 66.6104 -15.1569 261° West  Level Estimated
09:10AM 66.5908 -15.4582 261° West  Level Estimated
09:11AM 66.5707 -15.7590 261° West  Level Estimated
09:12AM 66.5501 -16.0592 260° West  Level Estimated
09:13AM 66.5288 -16.3590 260° West  Level Estimated
09:14AM 66.5070 -16.6583 260° West  Level Estimated
09:15AM 66.4846 -16.9570 259° West  Level Estimated
09:16AM 66.4617 -17.2552 259° West  Level Estimated
09:17AM 66.4382 -17.5528 259° West  Level Estimated
09:18AM 66.4141 -17.8498 259° West  Level Estimated
09:19AM 66.3894 -18.1463 258° West  Level Estimated
09:20AM 66.3642 -18.4422 258° West  Level Estimated
09:21AM 66.3385 -18.7375 258° West  Level Estimated
09:22AM 66.3121 -19.0322 258° West  Level Estimated
09:23AM 66.2852 -19.3262 257° West  Level Estimated
09:24AM 66.2578 -19.6196 257° West  Level Estimated
09:25AM 66.2298 -19.9124 257° West  Level Estimated
09:26AM 66.2013 -20.2045 257° West  Level Estimated
09:27AM 66.1722 -20.4960 256° West  Level Estimated
09:28AM 66.1425 -20.7868 256° West  Level Estimated
09:29AM 66.1124 -21.0769 256° West  Level Estimated
09:30AM 66.0816 -21.3663 255° West  Level Estimated
09:31AM 66.0504 -21.6549 255° West  Level Estimated
09:32AM 66.0185 -21.9429 255° West  Level Estimated
09:33AM 65.9862 -22.2302 255° West  Level Estimated
09:34AM 65.9533 -22.5167 254° West  Level Estimated
09:35AM 65.9199 -22.8025 254° West  Level Estimated
09:36AM 65.8860 -23.0875 254° West  Level Estimated
09:37AM 65.8515 -23.3718 254° West  Level Estimated
09:38AM 65.8165 -23.6553 253° West  Level Estimated
09:39AM 65.7810 -23.9380 253° West  Level Estimated
09:40AM 65.7450 -24.2199 253° West  Level Estimated
09:41AM 65.7084 -24.5011 253° West  Level Estimated
09:42AM 65.6714 -24.7815 252° West  Level Estimated
09:43AM 65.6338 -25.0610 252° West  Level Estimated
09:44AM 65.5957 -25.3397 252° West  Level Estimated
09:45AM 65.5571 -25.6176 252° West  Level Estimated
09:46AM 65.5180 -25.8947 251° West  Level Estimated
09:47AM 65.4784 -26.1710 251° West  Level Estimated
09:48AM 65.4383 -26.4464 251° West  Level Estimated
09:49AM 65.3977 -26.7209 251° West  Level Estimated
09:50AM 65.3566 -26.9946 250° West  Level Estimated
09:51AM 65.3149 -27.2675 250° West  Level Estimated
09:52AM 65.2729 -27.5394 250° West  Level Estimated
09:53AM 65.2303 -27.8106 250° West  Level Estimated
09:54AM 65.1872 -28.0808 249° West  Level Estimated
09:55AM 65.1437 -28.3501 249° West  Level Estimated
09:56AM 65.0996 -28.6186 249° West  Level Estimated
09:57AM 65.0551 -28.8862 249° West  Level Estimated
09:58AM 65.0101 -29.1528 248° West  Level Estimated
09:59AM 64.9647 -29.4186 248° West  Level Estimated
10:00AM 64.9187 -29.6835 248° West  Level Estimated
10:01AM 64.8723 -29.9474 248° West  Level Estimated
10:02AM 64.8255 -30.2104 247° West  Level Estimated
10:03AM 64.7781 -30.4726 247° West  Level Estimated
10:04AM 64.7303 -30.7338 247° West  Level Estimated
10:05AM 64.6821 -30.9940 247° West  Level Estimated
10:06AM 64.6334 -31.2534 246° West  Level Estimated
10:07AM 64.5842 -31.5118 246° West  Level Estimated
10:08AM 64.5346 -31.7693 246° West  Level Estimated
10:09AM 64.4846 -32.0258 246° West  Level Estimated
10:10AM 64.4341 -32.2814 245° Southwest  Level Estimated
10:11AM 64.3831 -32.5360 245° Southwest  Level Estimated
10:12AM 64.3318 -32.7897 245° Southwest  Level Estimated
10:13AM 64.2799 -33.0425 245° Southwest  Level Estimated
10:14AM 64.2249 -33.3077 245° Southwest  Level Estimated
10:15AM 64.1693 -33.5719 244° Southwest  Level Estimated
10:16AM 64.1133 -33.8351 244° Southwest  Level Estimated
10:17AM 64.0568 -34.0971 244° Southwest  Level Estimated
10:18AM 63.9999 -34.3581 244° Southwest  Level Estimated
10:19AM 63.9425 -34.6181 243° Southwest  Level Estimated
10:20AM 63.8846 -34.8769 243° Southwest  Level Estimated
10:20AM 67.9360 -45.9040 243° Southwest 503 579 38,000  Level FlightAware
10:21AM 63.8262 -35.1348 243° Southwest  Level Estimated
10:21AM 67.8700 -46.2200 241° Southwest 504 580 38,000  Level FlightAware
10:22AM 67.8330 -46.3880 240° Southwest 504 580 38,000  Level FlightAware
10:23AM 67.7850 -46.6060 240° Southwest 504 580 38,000  Level FlightAware
10:23AM 67.7220 -46.9100 241° Southwest 504 580 38,000  Level FlightAware
10:24AM 67.6830 -47.0900 240° Southwest 504 580 38,000  Level FlightAware
10:25AM 67.6130 -47.4050 240° Southwest 502 578 38,000  Level FlightAware
10:26AM 67.5590 -47.6480 240° Southwest 504 580 38,000  Level FlightAware
10:26AM 67.5230 -47.8040 239° Southwest 505 581 38,000  Level FlightAware
10:27AM 67.4700 -48.0380 239° Southwest 506 582 38,000  Level FlightAware
10:28AM 67.4200 -48.2550 239° Southwest 505 581 38,000  Level FlightAware
10:28AM 67.3770 -48.4430 239° Southwest 505 581 38,000  Level FlightAware
10:29AM 67.3240 -48.6670 239° Southwest 504 580 38,000  Level FlightAware
10:30AM 67.2760 -48.8710 239° Southwest 503 579 38,000  Level FlightAware
10:30AM 67.2270 -49.0760 238° Southwest 503 579 38,000  Level FlightAware
10:31AM 67.1720 -49.3010 238° Southwest 504 580 38,000  Level FlightAware
10:32AM 67.1210 -49.5120 238° Southwest 504 580 38,000  Level FlightAware
10:32AM 67.0680 -49.7250 238° Southwest 505 581 38,000  Level FlightAware
10:33AM 67.0210 -49.9160 238° Southwest 505 581 38,000  Level FlightAware
10:34AM 66.9730 -50.0880 235° Southwest 505 581 38,000  Level FlightAware
10:34AM 66.9050 -50.2980 231° Southwest 506 582 38,000  Level FlightAware
10:35AM 66.8510 -50.4680 231° Southwest 505 581 38,000  Level FlightAware
10:36AM 66.7930 -50.6490 231° Southwest 504 580 38,000  Level FlightAware
10:36AM 66.7280 -50.8490 231° Southwest 504 580 38,000  Level FlightAware
10:37AM 66.6730 -51.0180 231° Southwest 505 581 38,000  Level FlightAware
10:38AM 66.6110 -51.2040 230° Southwest 505 581 38,000  Level FlightAware
10:38AM 66.5420 -51.4100 230° Southwest 504 580 38,000  Level FlightAware
10:39AM 66.4810 -51.5930 230° Southwest 503 579 38,000  Level FlightAware
10:40AM 66.4270 -51.7530 230° Southwest 502 578 38,000  Level FlightAware
10:40AM 66.3630 -51.9390 229° Southwest 505 581 38,000  Level FlightAware
10:41AM 66.2980 -52.1260 229° Southwest 506 582 38,000  Level FlightAware
10:42AM 66.2430 -52.2860 230° Southwest 509 586 38,000  Level FlightAware
10:42AM 66.1810 -52.4620 229° Southwest 508 585 38,000  Level FlightAware
10:43AM 66.1100 -52.6610 229° Southwest 508 585 38,000  Level FlightAware
10:44AM 66.0280 -52.8850 228° Southwest 508 585 38,000  Level FlightAware
10:45AM 65.9790 -53.0200 228° Southwest 508 585 38,000  Level FlightAware
10:46AM 65.9290 -53.1540 228° Southwest 508 585 38,000  Level FlightAware
10:46AM 65.8650 -53.3290 228° Southwest 508 585 38,000  Level FlightAware
10:47AM 65.8020 -53.4990 228° Southwest 508 585 38,000  Level FlightAware
10:48AM 65.7360 -53.6760 228° Southwest 508 585 38,000  Level FlightAware
10:49AM 65.6880 -53.8060 228° Southwest 508 585 38,000  Level FlightAware
10:49AM 65.6420 -53.9320 229° Southwest 508 585 38,000  Level FlightAware
10:50AM 65.5610 -54.1480 228° Southwest 508 585 38,000  Level FlightAware
10:51AM 65.5110 -54.2840 228° Southwest 508 585 38,000  Level FlightAware
10:51AM 65.4610 -54.4160 228° Southwest 508 585 38,000  Level FlightAware
10:52AM 65.4000 -54.5810 228° Southwest 508 585 38,000  Level FlightAware
10:53AM 65.2000 -55.1000 228° Southwest 510 587 38,000  Level Gander Center
10:54AM 65.1333 -55.2333 220° Southwest 520 598 38,000  Level Gander Center
10:55AM 65.0500 -55.5000 234° Southwest 510 587 38,000  Level Gander Center
10:56AM 64.9333 -55.7167 218° Southwest 510 587 38,000  Level Gander Center
10:57AM 64.8500 -55.9667 232° Southwest 510 587 38,000  Level Gander Center
10:59AM 64.6500 -56.3500 219° Southwest 520 598 38,000  Level Montreal Center
11:00AM 64.5500 -56.5833 225° Southwest 580 667 38,000  Level Montreal Center
11:01AM 64.4500 -56.8167 225° Southwest 510 587 38,000  Level Montreal Center
11:02AM 64.3500 -57.0500 225° Southwest 500 575 38,000  Level Montreal Center
11:04AM 64.1500 -57.5000 225° Southwest 450 518 38,000  Level Montreal Center
11:05AM 64.0500 -57.7167 224° Southwest 500 575 38,000  Level Montreal Center
11:06AM 63.9500 -57.9333 224° Southwest 500 575 38,000  Level Montreal Center
11:07AM 63.8500 -58.1500 224° Southwest 500 575 38,000  Level Montreal Center
11:08AM 63.7500 -58.3833 226° Southwest 500 575 38,000  Level Montreal Center
11:09AM 63.6500 -58.6000 224° Southwest 500 575 38,000  Level Montreal Center
11:10AM 63.5500 -58.8000 222° Southwest 500 575 38,000  Level Montreal Center
11:11AM 63.4500 -59.0167 224° Southwest 500 575 38,000  Level Montreal Center
11:12AM 63.3500 -59.2333 224° Southwest 500 575 38,000  Level Montreal Center
11:13AM 63.2500 -59.4333 222° Southwest 500 575 38,000  Level Montreal Center
11:14AM 63.1333 -59.6500 220° Southwest 490 564 38,000  Level Montreal Center
11:15AM 63.0333 -59.8667 225° Southwest 500 575 38,000  Level Montreal Center
11:16AM 62.9333 -60.0667 222° Southwest 500 575 38,000  Level Montreal Center
11:17AM 62.8167 -60.2333 213° Southwest 500 575 38,000  Level Montreal Center
11:18AM 62.7167 -60.4000 217° Southwest 510 587 38,000  Level Montreal Center
11:19AM 62.6000 -60.5667 213° Southwest 510 587 38,000  Level Montreal Center
11:20AM 62.5000 -60.7667 223° Southwest 500 575 38,000  Level Montreal Center
11:21AM 62.3833 -60.9500 216° Southwest 490 564 38,000  Level Montreal Center
11:22AM 62.2833 -61.1000 215° Southwest 490 564 38,000  Level Montreal Center
11:23AM 62.1667 -61.3000 219° Southwest 510 587 38,000  Level Montreal Center
11:25AM 61.9500 -61.6333 216° Southwest 480 552 38,000  Level Montreal Center
11:26AM 61.8500 -61.7833 215° Southwest 480 552 38,000  Level Montreal Center
11:27AM 61.7500 -61.9667 221° Southwest 490 564 38,000  Level Montreal Center
11:28AM 61.6167 -62.1333 211° Southwest 480 552 38,000  Level Montreal Center
11:29AM 61.5167 -62.2833 216° Southwest 480 552 38,000  Level Montreal Center
11:30AM 61.4167 -62.4333 216° Southwest 480 552 38,000  Level Montreal Center
11:31AM 61.3000 -62.6333 219° Southwest 480 552 38,000  Level Montreal Center
11:32AM 61.1833 -62.7833 212° Southwest 480 552 38,000  Level Montreal Center
11:33AM 61.0833 -62.9333 216° Southwest 480 552 38,000  Level Montreal Center
11:34AM 60.9667 -63.1167 217° Southwest 480 552 38,000  Level Montreal Center
11:35AM 60.8667 -63.2667 216° Southwest 470 541 38,100 360 Climbing Montreal Center
11:36AM 60.7667 -63.4333 219° Southwest 480 552 38,800 600 Climbing Montreal Center
11:37AM 60.6333 -63.5833 209° Southwest 480 552 39,300 420 Climbing Montreal Center
11:38AM 60.5333 -63.7333 216° Southwest 480 552 39,700 300 Climbing Montreal Center
11:39AM 60.4167 -63.8833 212° Southwest 490 564 40,000 120 Climbing Montreal Center
11:40AM 60.3000 -64.0500 215° Southwest 490 564 40,000  Level Montreal Center
11:41AM 60.2000 -64.2000 217° Southwest 490 564 40,000  Level Montreal Center
11:42AM 60.0833 -64.3333 210° Southwest 480 552 40,000  Level Montreal Center
11:43AM 59.9833 -64.4667 214° Southwest 480 552 40,000  Level Montreal Center
11:44AM 59.8667 -64.6500 218° Southwest 480 552 40,000  Level Montreal Center
11:45AM 59.7333 -64.8000 210° Southwest 480 552 40,000  Level Montreal Center
11:46AM 59.6333 -64.9333 214° Southwest 480 552 40,000  Level Montreal Center
11:47AM 59.5167 -65.0667 210° Southwest 470 541 40,000  Level Montreal Center
11:48AM 59.4167 -65.2333 220° Southwest 470 541 40,000  Level Montreal Center
11:49AM 59.3167 -65.3667 214° Southwest 470 541 40,000  Level Montreal Center
11:50AM 59.2000 -65.5000 210° Southwest 470 541 40,000  Level Montreal Center
11:51AM 59.1000 -65.6333 214° Southwest 470 541 40,000  Level Montreal Center
11:52AM 58.9833 -65.7500 207° Southwest 470 541 40,000  Level Montreal Center
11:53AM 58.8833 -65.8833 215° Southwest 470 541 40,000  Level Montreal Center
11:54AM 58.7667 -66.0167 211° Southwest 470 541 40,000  Level Montreal Center
11:55AM 58.6667 -66.1500 215° Southwest 460 529 40,000  Level Montreal Center
11:56AM 58.5500 -66.3000 214° Southwest 460 529 40,000  Level Montreal Center
11:57AM 58.4500 -66.4333 215° Southwest 460 529 40,000  Level Montreal Center
11:58AM 58.3167 -66.5667 208° Southwest 470 541 40,000  Level Montreal Center
11:59AM 58.2167 -66.6833 212° Southwest 470 541 40,000  Level Montreal Center
12:00PM 58.1000 -66.8167 211° Southwest 470 541 40,000  Level Montreal Center
12:01PM 57.9833 -66.9667 214° Southwest 470 541 40,000  Level Montreal Center
12:02PM 57.8667 -67.0833 208° Southwest 470 541 40,000  Level Montreal Center
12:03PM 57.7500 -67.2167 211° Southwest 470 541 40,000  Level Montreal Center
12:04PM 57.6500 -67.3333 212° Southwest 470 541 40,000  Level Montreal Center
12:05PM 57.5333 -67.4500 208° Southwest 470 541 40,000  Level Montreal Center
12:06PM 57.4333 -67.6000 219° Southwest 470 541 40,000  Level Montreal Center
12:07PM 57.3167 -67.7167 208° Southwest 470 541 40,000  Level Montreal Center
12:08PM 57.2000 -67.8500 212° Southwest 470 541 40,000  Level Montreal Center
12:09PM 57.1000 -67.9667 212° Southwest 460 529 40,000  Level Montreal Center
12:10PM 56.9833 -68.0833 209° Southwest 460 529 40,000  Level Montreal Center
12:11PM 56.8667 -68.2000 209° Southwest 460 529 40,000  Level Montreal Center
12:12PM 56.7667 -68.3000 209° Southwest 460 529 40,000  Level Montreal Center
12:13PM 56.6500 -68.4500 215° Southwest 460 529 40,000  Level Montreal Center
12:14PM 56.5167 -68.5667 206° Southwest 460 529 40,000  Level Montreal Center
12:15PM 56.4167 -68.6833 213° Southwest 470 541 40,000  Level Montreal Center
12:16PM 56.3000 -68.8000 209° Southwest 470 541 40,000  Level Montreal Center
12:17PM 56.1833 -68.9333 212° Southwest 470 541 40,000  Level Montreal Center
12:18PM 56.0833 -69.0500 213° Southwest 470 541 40,000  Level Montreal Center
12:19PM 55.9667 -69.1667 209° Southwest 470 541 40,000  Level Montreal Center
12:20PM 55.8500 -69.2667 206° Southwest 470 541 40,000  Level Montreal Center
12:21PM 55.7333 -69.3833 209° Southwest 470 541 40,000  Level Montreal Center
12:22PM 55.6333 -69.4833 209° Southwest 470 541 40,000  Level Montreal Center
12:23PM 55.5167 -69.6167 213° Southwest 470 541 40,000  Level Montreal Center
12:24PM 55.4000 -69.7333 210° Southwest 460 529 40,000  Level Montreal Center
12:25PM 55.2833 -69.8333 206° Southwest 460 529 40,000  Level Montreal Center
12:26PM 55.1833 -69.9500 214° Southwest 460 529 40,000  Level Montreal Center
12:27PM 55.0500 -70.0833 210° Southwest 460 529 40,000  Level Montreal Center
12:28PM 54.9333 -70.1833 206° Southwest 450 518 40,000  Level Montreal Center
12:29PM 54.8333 -70.2500 201° Southwest 440 506 40,000  Level Montreal Center
12:30PM 54.7333 -70.3667 214° Southwest 450 518 40,000  Level Montreal Center
12:31PM 54.6167 -70.4667 206° Southwest 450 518 40,000  Level Montreal Center
12:32PM 54.5167 -70.5667 210° Southwest 450 518 40,000  Level Montreal Center
12:33PM 54.3833 -70.7000 210° Southwest 460 529 40,000  Level Montreal Center
12:34PM 54.2667 -70.7667 198° South 470 541 40,000  Level Montreal Center
12:35PM 54.1333 -70.8167 192° South 460 529 40,000  Level Montreal Center
12:36PM 54.0167 -70.8333 185° South 460 529 40,000  Level Montreal Center
12:37PM 53.8833 -70.8833 192° South 470 541 40,000  Level Montreal Center
12:38PM 53.7500 -70.9167 188° South 470 541 40,000  Level Montreal Center
12:39PM 53.6333 -70.9667 194° South 470 541 40,000  Level Montreal Center
12:40PM 53.5000 -71.0000 188° South 470 541 40,000  Level Montreal Center
12:41PM 53.3667 -71.0500 193° South 470 541 40,000  Level Montreal Center
12:42PM 53.2333 -71.1000 193° South 470 541 40,000  Level Montreal Center
12:43PM 53.1000 -71.1333 189° South 470 541 40,000  Level Montreal Center
12:44PM 52.9667 -71.1833 193° South 470 541 40,000  Level Montreal Center
12:45PM 52.8333 -71.2167 189° South 470 541 40,000  Level Montreal Center
12:46PM 52.7167 -71.2667 195° South 470 541 40,000  Level Montreal Center
12:47PM 52.5833 -71.3000 189° South 470 541 40,000  Level Montreal Center
12:48PM 52.4500 -71.3500 193° South 480 552 40,000  Level Montreal Center
12:49PM 52.3167 -71.3667 184° South 480 552 40,000  Level Montreal Center
12:50PM 52.1833 -71.4333 197° South 480 552 40,000  Level Montreal Center
12:51PM 52.0500 -71.4500 184° South 480 552 40,000  Level Montreal Center
12:52PM 51.9167 -71.5167 197° South 470 541 40,000  Level Montreal Center
12:53PM 51.7833 -71.5333 184° South 480 552 40,000  Level Montreal Center
12:54PM 51.6667 -71.5667 190° South 480 552 40,000  Level Montreal Center
12:55PM 51.5333 -71.6000 189° South 480 552 40,000  Level Montreal Center
12:56PM 51.4000 -71.6500 193° South 480 552 40,000  Level Montreal Center
12:57PM 51.2667 -71.6833 189° South 470 541 40,000  Level Montreal Center
12:58PM 51.1333 -71.7333 193° South 470 541 40,000  Level Montreal Center
12:59PM 51.0000 -71.7667 189° South 470 541 40,000  Level Montreal Center
01:00PM 50.8833 -71.8000 190° South 470 541 40,000  Level Montreal Center
01:01PM 50.7500 -71.8333 189° South 470 541 40,000  Level Montreal Center
01:07PM 49.9970 -72.0720 189° South 467 537 40,000  Level FlightAware
01:07PM 49.9230 -72.0930 190° South 467 537 40,000  Level FlightAware
01:08PM 49.8380 -72.1160 190° South 467 537 40,000  Level FlightAware
01:09PM 49.7360 -72.1430 190° South 463 533 40,000  Level FlightAware
01:09PM 49.6630 -72.1630 190° South 463 533 40,000  Level FlightAware
01:10PM 49.5630 -72.1900 190° South 463 533 40,000  Level FlightAware
01:11PM 49.4470 -72.2210 190° South 456 525 40,000  Level FlightAware
01:12PM 49.3580 -72.2450 190° South 449 517 40,000  Level FlightAware
01:12PM 49.2770 -72.2670 190° South 449 517 40,000  Level FlightAware
01:13PM 49.1810 -72.2910 189° South 449 517 40,000  Level FlightAware
01:14PM 49.0830 -72.3180 190° South 447 514 40,000  Level FlightAware
01:15PM 48.9870 -72.3420 189° South 447 514 40,000  Level FlightAware
01:16PM 48.8970 -72.3670 190° South 449 517 40,000  Level FlightAware
01:17PM 48.7230 -72.4130 190° South 443 510 40,000  Level FlightAware
01:18PM 48.6620 -72.4290 190° South 443 510 40,000  Level FlightAware
01:18PM 48.5510 -72.4570 189° South 40,000  Level FlightAware
01:19PM 48.4600 -72.4810 190° South 451 519 40,000  Level FlightAware
01:20PM 48.3820 -72.5010 190° South 453 521 40,000  Level FlightAware
01:21PM 48.2840 -72.5260 190° South 455 524 40,000  Level FlightAware
01:21PM 48.2130 -72.5440 190° South 457 526 40,000  Level FlightAware
01:22PM 48.1280 -72.5650 189° South 459 528 40,000  Level FlightAware
01:23PM 48.0350 -72.5890 190° South 460 529 40,000  Level FlightAware
01:23PM 47.9500 -72.6100 189° South 462 532 40,000  Level FlightAware
01:24PM 47.8550 -72.6340 190° South 464 534 40,000  Level FlightAware
01:25PM 47.7740 -72.6550 190° South 465 535 40,000  Level FlightAware
01:25PM 47.6760 -72.6790 189° South 464 534 40,000  Level FlightAware
01:26PM 47.5920 -72.7000 190° South 462 532 40,000  Level FlightAware
01:27PM 47.5080 -72.7210 190° South 464 534 40,000  Level FlightAware
01:27PM 47.4130 -72.7450 190° South 464 534 40,000  Level FlightAware
01:28PM 47.3280 -72.7650 189° South 463 533 40,000  Level FlightAware
01:29PM 47.2340 -72.7890 190° South 462 532 40,000  Level FlightAware
01:30PM 47.1500 -72.8090 189° South 462 532 40,000  Level FlightAware
01:30PM 47.0760 -72.8270 189° South 463 533 40,000  Level FlightAware
01:31PM 46.9910 -72.8480 190° South 463 533 40,000  Level FlightAware
01:32PM 46.8970 -72.8710 189° South 461 531 40,000  Level FlightAware
01:32PM 46.8140 -72.8910 189° South 460 529 40,000  Level FlightAware
01:33PM 46.7300 -72.9110 189° South 458 527 40,000  Level FlightAware
01:34PM 46.6460 -72.9310 189° South 456 525 40,000  Level FlightAware
01:34PM 46.5530 -72.9530 189° South 453 521 40,000  Level FlightAware
01:35PM 46.4710 -72.9730 190° South 451 519 40,000  Level FlightAware
01:36PM 46.3900 -72.9920 189° South 450 518 40,000  Level FlightAware
01:36PM 46.3080 -73.0120 190° South 450 518 40,000  Level FlightAware
01:37PM 46.2250 -73.0310 189° South 452 520 40,000  Level FlightAware
01:38PM 46.1330 -73.0530 189° South 452 520 40,000  Level FlightAware
01:38PM 46.0560 -73.0710 189° South 450 518 40,000  Level FlightAware
01:39PM 45.9590 -73.0940 189° South 448 516 40,000  Level FlightAware
01:40PM 45.8760 -73.1130 189° South 448 516 40,000  Level FlightAware
01:40PM 45.8070 -73.1290 189° South 447 514 40,000  Level FlightAware
01:41PM 45.7240 -73.1490 190° South 449 517 40,000  Level FlightAware
01:42PM 45.6310 -73.1700 189° South 450 518 40,000  Level FlightAware
01:42PM 45.5600 -73.1860 189° South 450 518 40,000  Level FlightAware
01:43PM 45.4780 -73.2050 189° South 451 519 40,000  Level FlightAware
01:44PM 45.3850 -73.2270 189° South 454 522 40,000  Level FlightAware
01:44PM 45.3130 -73.2430 189° South 456 525 40,000  Level FlightAware
01:45PM 45.2190 -73.2640 189° South 454 522 40,000  Level FlightAware
01:46PM 45.1280 -73.2850 189° South 453 521 40,000  Level FlightAware
01:47PM 45.0350 -73.3060 189° South 451 519 40,000  Level FlightAware
01:47PM 44.9520 -73.3250 189° South 450 518 40,000  Level FlightAware
01:48PM 44.8450 -73.3490 189° South 451 519 40,000  Level FlightAware
01:49PM 44.7650 -73.3670 189° South 451 519 40,000  Level FlightAware
01:50PM 44.6720 -73.3880 189° South 454 522 40,000  Level FlightAware
01:50PM 44.5910 -73.4060 189° South 455 524 40,000  Level FlightAware
01:51PM 44.5050 -73.4250 189° South 454 522 40,000  Level FlightAware
01:52PM 44.4150 -73.4450 189° South 454 522 40,000  Level FlightAware
01:52PM 44.3210 -73.4660 189° South 451 519 40,000  Level FlightAware
01:53PM 44.2160 -73.4890 189° South 452 520 40,000  Level FlightAware
01:54PM 44.1550 -73.5020 189° South 452 520 40,000  Level FlightAware
01:54PM 44.0800 -73.5190 189° South 443 510 40,000  Level FlightAware
01:55PM 43.9930 -73.5380 189° South 452 520 40,000  Level FlightAware
01:56PM 43.9090 -73.5560 189° South 443 510 40,000  Level FlightAware
01:57PM 43.8030 -73.5790 189° South 443 510 40,000  Level FlightAware
01:57PM 43.7230 -73.5960 189° South 452 520 40,000  Level FlightAware
01:58PM 43.6380 -73.6140 189° South 452 520 40,000  Level FlightAware
01:59PM 43.5160 -73.6400 189° South 453 521 40,000  Level FlightAware
02:00PM 43.4020 -73.6650 189° South 455 524 40,000 -540 Level FlightAware
02:01PM 43.3110 -73.6840 189° South 453 521 39,300 -960 Descending FlightAware
02:01PM 43.2210 -73.7040 189° South 455 524 38,600 -960 Descending FlightAware
02:02PM 43.1340 -73.7220 189° South 458 527 38,000 -480 Descending FlightAware
02:03PM 43.0490 -73.7400 189° South 455 524 38,000  Level FlightAware
02:03PM 42.9560 -73.7600 189° South 454 522 38,000  Level FlightAware
02:04PM 42.8750 -73.7770 189° South 456 525 38,000  Level FlightAware
02:05PM 42.7870 -73.7940 188° South 455 524 38,000 -480 Level FlightAware
02:06PM 42.6520 -73.8050 183° South 464 534 37,200 -840 Descending FlightAware
02:07PM 42.5130 -73.8060 180° South 464 534 36,200 -540 Descending FlightAware
02:08PM 42.4050 -73.8060 180° South 464 534 36,200  Level FlightAware
02:09PM 42.3400 -73.8060 180° South 464 534 36,200 -3,660 Level FlightAware
02:09PM 42.2130 -73.8120 182° South 461 531 31,700 -4,200 Descending FlightAware
02:10PM 42.1250 -73.8140 181° South 449 517 30,600 -840 Descending FlightAware
02:10PM 42.0590 -73.8140 180° South 449 517 30,600 -1,680 Level FlightAware
02:11PM 41.9690 -73.8170 181° South 450 518 28,500 -2,280 Descending FlightAware
02:12PM 41.8860 -73.8400 192° South 438 504 27,600 -1,560 Descending FlightAware
02:13PM 41.7934 -73.8823 199° South 428 493 26,200 -1,740 Descending FlightAware ADS-B
02:13PM 41.7230 -73.9134 198° South 422 486 25,200 -1,740 Descending FlightAware ADS-B
02:14PM 41.6347 -73.9526 198° South 416 479 23,800 -1,680 Descending FlightAware ADS-B
02:15PM 41.5802 -73.9770 199° South 411 473 23,000 -1,620 Descending FlightAware ADS-B
02:15PM 41.5199 -74.0037 198° South 406 467 22,100 -1,620 Descending FlightAware ADS-B
02:16PM 41.4666 -74.0271 198° South 399 459 21,300 -1,620 Descending FlightAware ADS-B
02:16PM 41.4212 -74.0469 198° South 398 458 20,600 -1,620 Descending FlightAware ADS-B
02:16PM 41.4148 -74.0491 194° South 399 459 20,500 -900 Descending FlightAware ADS-B
02:17PM 41.3580 -74.0596 188° South 400 460 20,100 -540 Descending FlightAware ADS-B
02:17PM 41.3003 -74.0693 187° South 400 460 20,000 -300 Descending FlightAware ADS-B
02:18PM 41.2449 -74.0789 187° South 400 460 19,800 -720 Descending FlightAware ADS-B
02:18PM 41.1851 -74.0891 187° South 398 458 19,300 -780 Descending FlightAware ADS-B
02:19PM 41.1304 -74.0982 187° South 396 456 19,000 -420 Descending FlightAware ADS-B
02:19PM 41.1037 -74.1028 187° South 396 456 19,000  Level FlightAware ADS-B
02:19PM 41.0752 -74.1077 187° South 393 452 19,000  Level FlightAware ADS-B
02:19PM 41.0467 -74.1125 187° South 391 450 19,000  Level FlightAware ADS-B
02:20PM 41.0212 -74.1168 187° South 386 444 19,000  Level FlightAware ADS-B
02:20PM 40.9893 -74.1221 187° South 361 415 19,000  Level FlightAware ADS-B
02:20PM 40.9686 -74.1255 187° South 350 403 19,000  Level FlightAware ADS-B
02:21PM 40.9428 -74.1278 184° South 342 394 19,000  Level FlightAware ADS-B
02:21PM 40.9393 -74.1273 174° South 341 392 19,000  Level FlightAware ADS-B
02:21PM 40.9363 -74.1267 171° South 341 392 19,000  Level FlightAware ADS-B
02:21PM 40.9317 -74.1254 168° South 341 392 19,000  Level FlightAware ADS-B
02:21PM 40.9239 -74.1221 162° South 341 392 19,000  Level FlightAware ADS-B
02:21PM 40.9166 -74.1175 155° Southeast 342 394 19,000  Level FlightAware ADS-B
02:21PM 40.9150 -74.1164 153° Southeast 342 394 19,000  Level FlightAware ADS-B
02:21PM 40.9069 -74.1092 146° Southeast 345 397 19,000  Level FlightAware ADS-B
02:21PM 40.9007 -74.1018 138° Southeast 349 402 19,000  Level FlightAware ADS-B
02:21PM 40.8945 -74.0921 130° Southeast 355 409 19,000  Level FlightAware ADS-B
02:21PM 40.8937 -74.0905 123° Southeast 355 409 19,000  Level FlightAware ADS-B
02:21PM 40.8895 -74.0816 122° Southeast 358 412 19,000  Level FlightAware ADS-B
02:21PM 40.8888 -74.0797 116° Southeast 359 413 19,000  Level FlightAware ADS-B
02:22PM 40.8691 -74.0184 113° Southeast 362 417 19,000  Level FlightAware ADS-B
02:22PM 40.8688 -74.0175 114° Southeast 362 417 19,000  Level FlightAware ADS-B
02:22PM 40.8593 -73.9875 113° Southeast 364 419 19,000 -240 Level FlightAware ADS-B
02:22PM 40.8506 -73.9672 120° Southeast 359 413 18,900 -840 Descending FlightAware ADS-B
02:22PM 40.8466 -73.9606 129° Southeast 355 409 18,800 -1,740 Descending FlightAware ADS-B
02:22PM 40.8434 -73.9560 133° Southeast 353 406 18,700 -1,380 Descending FlightAware ADS-B
02:22PM 40.8360 -73.9468 137° Southeast 347 399 18,600 -900 Descending FlightAware ADS-B
02:22PM 40.8344 -73.9449 138° Southeast 347 399 18,600 -1,140 Level FlightAware ADS-B
02:23PM 40.7969 -73.9048 141° Southeast 340 391 18,000 -1,320 Descending FlightAware ADS-B
02:23PM 40.7539 -73.8597 142° Southeast 335 386 17,200 -1,440 Descending FlightAware ADS-B
02:24PM 40.7174 -73.8219 142° Southeast 334 384 16,500 -1,440 Descending FlightAware ADS-B
02:24PM 40.7016 -73.8035 139° Southeast 338 389 16,200 -1,260 Descending FlightAware ADS-B
02:25PM 40.6700 -73.7190 116° Southeast 341 392 15,300 -1,200 Descending FlightAware
02:25PM 40.6550 -73.6724 113° Southeast 344 396 14,800 -1,260 Descending FlightAware ADS-B
02:26PM 40.6306 -73.5919 112° Southeast 335 386 13,900 -1,260 Descending FlightAware ADS-B
02:26PM 40.6298 -73.5797 95° East 339 390 13,800 -1,320 Descending FlightAware ADS-B
02:26PM 40.6310 -73.5621 85° East 340 391 13,600 -1,500 Descending FlightAware ADS-B
02:27PM 40.6494 -73.4836 73° East 333 383 12,600 -1,620 Descending FlightAware ADS-B
02:27PM 40.6616 -73.4663 47° Northeast 322 371 12,200 -2,040 Descending FlightAware ADS-B
02:28PM 40.7070 -73.4160 40° Northeast 313 360 10,800 -1,740 Descending FlightAware
02:29PM 40.7500 -73.3690 40° Northeast 312 359 9,900 -1,800 Descending FlightAware
02:29PM 40.7820 -73.3350 39° Northeast 313 360 8,800 -2,460 Descending FlightAware
02:29PM 40.7940 -73.3230 37° Northeast 309 356 8,400 -1,980 Descending FlightAware
02:30PM 40.8210 -73.3120 17° North 294 338 7,800 -1,500 Descending FlightAware
02:30PM 40.8500 -73.3250 341° North 276 318 7,300 -1,200 Descending FlightAware
02:30PM 40.8590 -73.3390 310° West 271 312 7,100 -1,260 Descending FlightAware
02:31PM 40.8790 -73.3860 299° West 267 307 6,400 -1,260 Descending FlightAware
02:31PM 40.8890 -73.4090 300° West 265 305 6,100 -1,380 Descending FlightAware
02:31PM 40.9030 -73.4430 299° West 260 299 5,500 -1,260 Descending FlightAware
02:31PM 40.9050 -73.4560 282° West 257 296 5,400 -720 Descending FlightAware
02:32PM 40.8870 -73.5000 242° Southwest 237 273 5,000 -660 Descending FlightAware
02:32PM 40.8630 -73.5170 208° Southwest 225 259 4,800 -480 Descending FlightAware
02:33PM 40.8510 -73.5290 217° Southwest 219 252 4,700 -720 Descending FlightAware
02:33PM 40.8300 -73.5530 221° Southwest 212 244 4,300 -780 Descending FlightAware
02:34PM 40.8100 -73.5750 220° Southwest 202 232 4,000 -660 Descending FlightAware
02:34PM 40.7890 -73.5990 221° Southwest 197 227 3,700 -840 Descending FlightAware
02:34PM 40.7770 -73.6110 217° Southwest 194 223 3,400 -1,200 Descending FlightAware
02:35PM 40.7600 -73.6300 220° Southwest 192 221 2,900 -1,200 Descending FlightAware
02:35PM 40.7470 -73.6450 221° Southwest 187 215 2,500 -1,080 Descending FlightAware
02:36PM 40.7280 -73.6660 220° Southwest 173 199 2,000 -960 Descending FlightAware
02:36PM 40.7180 -73.6770 220° Southwest 169 194 1,800 -900 Descending FlightAware
02:36PM 40.7030 -73.6940 221° Southwest 169 194 1,400 -1,080 Descending FlightAware
02:37PM 40.6950 -73.7030 220° Southwest 156 180 1,100 -900 Descending FlightAware
02:37PM 40.6820 -73.7170 219° Southwest 140 161 800 -840 Descending FlightAware
02:37PM 40.6760 -73.7250 225° Southwest 135 155 600 -840 Descending FlightAware
02:38PM 40.6620 -73.7420 223° Southwest 132 152 200 -840 Descending FlightAware
02:38PM 40.6480 -73.7530 211° Southwest 131 151 -480 Descending FlightAware
02:38PM 40.6380 -73.7610 211° Southwest 121 139  Level FlightAware
02:39PM 40.6290 -73.7680 211° Southwest 37 43  Level FlightAware
02:39PM 40.6260 -73.7700 207° Southwest 29 33  Level FlightAware
02:45PM 40.6333 -73.7667 258° West  Level FlightAware Approximate